createdAt,value
2016-09-22T00:00:30.717Z,8
2016-09-22T00:01:11.413Z,8
2016-09-22T00:01:52.176Z,8
2016-09-22T00:02:32.885Z,8
2016-09-22T00:03:13.595Z,8
2016-09-22T00:03:54.336Z,8
2016-09-22T00:04:35.119Z,8
2016-09-22T00:05:15.910Z,8
2016-09-22T00:05:56.627Z,8
2016-09-22T00:06:37.387Z,8
2016-09-22T00:07:18.127Z,8
2016-09-22T00:07:59.813Z,8
2016-09-22T00:08:40.552Z,8
2016-09-22T00:09:21.329Z,8
2016-09-22T00:10:02.089Z,8
2016-09-22T00:10:42.813Z,8
2016-09-22T00:11:23.545Z,8
2016-09-22T00:12:04.296Z,8
2016-09-22T00:12:45.031Z,8
2016-09-22T00:13:25.800Z,8
2016-09-22T00:14:06.569Z,8
2016-09-22T00:14:47.321Z,8
2016-09-22T00:15:28.107Z,8
2016-09-22T00:16:08.882Z,8
2016-09-22T00:16:49.651Z,8
2016-09-22T00:17:30.352Z,8
2016-09-22T00:18:11.166Z,8
2016-09-22T00:18:51.870Z,8
2016-09-22T00:19:32.565Z,8
2016-09-22T00:20:13.345Z,8
2016-09-22T00:20:54.075Z,8
2016-09-22T00:21:34.803Z,8
2016-09-22T00:22:15.674Z,8
2016-09-22T00:22:56.442Z,8
2016-09-22T00:23:37.172Z,8
2016-09-22T00:24:17.905Z,8
2016-09-22T00:24:58.633Z,8
2016-09-22T00:25:39.388Z,8
2016-09-22T00:26:20.175Z,8
2016-09-22T00:27:00.823Z,8
2016-09-22T00:27:41.570Z,8
2016-09-22T00:28:22.541Z,8
2016-09-22T00:29:03.232Z,8
2016-09-22T00:29:43.937Z,8
2016-09-22T00:30:24.695Z,8
2016-09-22T00:31:05.419Z,8
2016-09-22T00:31:46.203Z,8
2016-09-22T00:32:26.900Z,8
2016-09-22T00:33:07.790Z,8
2016-09-22T00:33:48.555Z,8
2016-09-22T00:34:29.301Z,8
2016-09-22T00:35:10.063Z,8
2016-09-22T00:35:50.838Z,8
2016-09-22T00:36:31.551Z,8
2016-09-22T00:37:12.335Z,8
2016-09-22T00:37:53.078Z,8
2016-09-22T00:38:33.808Z,8
2016-09-22T00:39:14.521Z,8
2016-09-22T00:39:55.255Z,8
2016-09-22T00:40:36.018Z,8
2016-09-22T00:41:16.802Z,8
2016-09-22T00:41:57.520Z,8
2016-09-22T00:42:38.279Z,8
2016-09-22T00:43:19.008Z,8
2016-09-22T00:43:59.732Z,8
2016-09-22T00:44:40.417Z,8
2016-09-22T00:45:21.231Z,8
2016-09-22T00:46:02.036Z,8
2016-09-22T00:46:42.772Z,8
2016-09-22T00:47:23.694Z,8
2016-09-22T00:48:04.550Z,8
2016-09-22T00:48:45.312Z,8
2016-09-22T00:49:26.009Z,8
2016-09-22T00:50:06.717Z,8
2016-09-22T00:50:47.470Z,8
2016-09-22T00:51:28.185Z,8
2016-09-22T00:52:08.922Z,8
2016-09-22T00:52:49.686Z,8
2016-09-22T00:53:30.430Z,8
2016-09-22T00:54:11.138Z,8
2016-09-22T00:54:51.925Z,8
2016-09-22T00:55:32.665Z,8
2016-09-22T00:56:13.403Z,8
2016-09-22T00:56:54.181Z,8
2016-09-22T00:57:34.915Z,8
2016-09-22T00:58:15.656Z,8
2016-09-22T00:58:56.409Z,8
2016-09-22T00:59:37.336Z,8
2016-09-22T01:00:18.066Z,8
2016-09-22T01:00:58.807Z,8
2016-09-22T01:01:39.568Z,8
2016-09-22T01:02:20.265Z,8
2016-09-22T01:03:00.986Z,8
2016-09-22T01:03:41.746Z,8
2016-09-22T01:04:22.498Z,8
2016-09-22T01:05:03.273Z,8
2016-09-22T01:05:44.029Z,8
2016-09-22T01:06:24.761Z,8
2016-09-22T01:07:05.476Z,8
2016-09-22T01:07:46.251Z,8
2016-09-22T01:08:27.025Z,8
2016-09-22T01:09:07.750Z,8
2016-09-22T01:09:48.542Z,8
2016-09-22T01:10:29.221Z,8
2016-09-22T01:11:09.956Z,8
2016-09-22T01:11:50.711Z,8
2016-09-22T01:12:31.412Z,8
2016-09-22T01:13:12.144Z,8
2016-09-22T01:13:52.867Z,8
2016-09-22T01:14:33.620Z,8
2016-09-22T01:15:14.379Z,8
2016-09-22T01:15:55.108Z,8
2016-09-22T01:16:35.837Z,8
2016-09-22T01:17:16.567Z,8
2016-09-22T01:17:57.256Z,8
2016-09-22T01:18:38.010Z,8
2016-09-22T01:19:18.832Z,8
2016-09-22T01:19:59.518Z,8
2016-09-22T01:20:40.286Z,8
2016-09-22T01:21:21.030Z,8
2016-09-22T01:22:01.733Z,8
2016-09-22T01:22:42.789Z,8
2016-09-22T01:23:23.651Z,8
2016-09-22T01:24:04.367Z,8
2016-09-22T01:24:45.080Z,8
2016-09-22T01:25:26.120Z,8
2016-09-22T01:26:06.912Z,8
2016-09-22T01:26:47.690Z,8
2016-09-22T01:27:28.431Z,8
2016-09-22T01:28:09.211Z,8
2016-09-22T01:28:50.118Z,8
2016-09-22T01:29:30.911Z,8
2016-09-22T01:30:11.669Z,8
2016-09-22T01:30:52.427Z,8
2016-09-22T01:31:33.146Z,8
2016-09-22T01:32:13.887Z,8
2016-09-22T01:32:54.584Z,8
2016-09-22T01:33:35.413Z,8
2016-09-22T01:34:16.306Z,8
2016-09-22T01:34:57.032Z,8
2016-09-22T01:35:37.691Z,8
2016-09-22T01:36:18.438Z,8
2016-09-22T01:36:59.120Z,8
2016-09-22T01:37:39.836Z,8
2016-09-22T01:38:20.592Z,8
2016-09-22T01:39:01.372Z,8
2016-09-22T01:39:42.097Z,8
2016-09-22T01:40:22.849Z,8
2016-09-22T01:41:03.586Z,8
2016-09-22T01:41:44.336Z,8
2016-09-22T01:42:25.202Z,8
2016-09-22T01:43:05.962Z,8
2016-09-22T01:43:46.687Z,8
2016-09-22T01:44:27.477Z,8
2016-09-22T01:45:08.181Z,8
2016-09-22T01:45:48.910Z,8
2016-09-22T01:46:29.621Z,8
2016-09-22T01:47:10.328Z,8
2016-09-22T01:47:51.073Z,8
2016-09-22T01:48:31.832Z,8
2016-09-22T01:49:12.574Z,8
2016-09-22T01:49:53.325Z,8
2016-09-22T01:50:34.050Z,8
2016-09-22T01:51:14.810Z,8
2016-09-22T01:51:55.576Z,8
2016-09-22T01:52:36.304Z,8
2016-09-22T01:53:17.179Z,8
2016-09-22T01:53:57.887Z,8
2016-09-22T01:54:38.619Z,8
2016-09-22T01:55:19.332Z,8
2016-09-22T01:56:00.000Z,8
2016-09-22T01:56:40.719Z,8
2016-09-22T01:57:21.473Z,8
2016-09-22T01:58:02.245Z,8
2016-09-22T01:58:42.999Z,8
2016-09-22T01:59:23.723Z,8
2016-09-22T02:00:04.457Z,8
2016-09-22T02:00:45.187Z,8
2016-09-22T02:01:25.946Z,8
2016-09-22T02:02:06.711Z,8
2016-09-22T02:02:47.430Z,8
2016-09-22T02:03:28.169Z,8
2016-09-22T02:04:09.118Z,8
2016-09-22T02:04:49.905Z,8
2016-09-22T02:05:30.620Z,8
2016-09-22T02:06:11.356Z,8
2016-09-22T02:06:52.085Z,8
2016-09-22T02:07:32.846Z,8
2016-09-22T02:08:13.537Z,8
2016-09-22T02:08:54.258Z,8
2016-09-22T02:09:35.006Z,8
2016-09-22T02:10:15.754Z,8
2016-09-22T02:10:56.543Z,8
2016-09-22T02:11:37.282Z,8
2016-09-22T02:12:18.017Z,8
2016-09-22T02:12:58.770Z,8
2016-09-22T02:13:39.665Z,8
2016-09-22T02:14:20.610Z,8
2016-09-22T02:15:01.375Z,8
2016-09-22T02:15:42.070Z,8
2016-09-22T02:16:22.847Z,8
2016-09-22T02:17:03.607Z,8
2016-09-22T02:17:44.330Z,8
2016-09-22T02:18:25.075Z,8
2016-09-22T02:19:05.793Z,8
2016-09-22T02:19:46.439Z,8
2016-09-22T02:20:27.200Z,8
2016-09-22T02:21:07.916Z,8
2016-09-22T02:21:48.634Z,8
2016-09-22T02:22:29.337Z,8
2016-09-22T02:23:10.055Z,8
2016-09-22T02:23:50.830Z,8
2016-09-22T02:24:31.618Z,8
2016-09-22T02:25:12.401Z,8
2016-09-22T02:25:53.205Z,8
2016-09-22T02:26:33.941Z,8
2016-09-22T02:27:14.714Z,8
2016-09-22T02:27:55.440Z,8
2016-09-22T02:28:36.151Z,8
2016-09-22T02:29:16.894Z,8
2016-09-22T02:29:57.614Z,8
2016-09-22T02:30:38.348Z,8
2016-09-22T02:31:19.050Z,8
2016-09-22T02:31:59.768Z,8
2016-09-22T02:32:40.530Z,8
2016-09-22T02:33:21.246Z,8
2016-09-22T02:34:02.015Z,8
2016-09-22T02:34:42.761Z,8
2016-09-22T02:35:23.474Z,8
2016-09-22T02:36:04.246Z,8
2016-09-22T02:36:44.999Z,8
2016-09-22T02:37:25.744Z,8
2016-09-22T02:38:06.485Z,8
2016-09-22T02:38:47.188Z,8
2016-09-22T02:39:27.921Z,8
2016-09-22T02:40:08.582Z,8
2016-09-22T02:40:49.341Z,8
2016-09-22T02:41:30.110Z,8
2016-09-22T02:42:10.823Z,8
2016-09-22T02:42:51.564Z,8
2016-09-22T02:43:32.293Z,8
2016-09-22T02:44:12.979Z,8
2016-09-22T02:44:53.708Z,8
2016-09-22T02:45:34.436Z,8
2016-09-22T02:46:15.185Z,8
2016-09-22T02:46:55.963Z,8
2016-09-22T02:47:36.644Z,8
2016-09-22T02:48:17.363Z,8
2016-09-22T02:48:58.129Z,8
2016-09-22T02:49:38.868Z,8
2016-09-22T02:50:19.631Z,8
2016-09-22T02:51:00.386Z,8
2016-09-22T02:51:41.070Z,8
2016-09-22T02:52:21.803Z,8
2016-09-22T02:53:02.543Z,8
2016-09-22T02:53:43.303Z,8
2016-09-22T02:54:24.003Z,8
2016-09-22T02:55:04.667Z,8
2016-09-22T02:55:45.377Z,8
2016-09-22T02:56:26.097Z,8
2016-09-22T02:57:06.866Z,8
2016-09-22T02:57:47.586Z,8
2016-09-22T02:58:28.330Z,8
2016-09-22T02:59:09.107Z,8
2016-09-22T02:59:49.851Z,8
2016-09-22T03:00:30.615Z,8
2016-09-22T03:01:11.383Z,8
2016-09-22T03:01:52.154Z,8
2016-09-22T03:02:32.952Z,8
2016-09-22T03:03:13.736Z,8
2016-09-22T03:03:54.420Z,8
2016-09-22T03:04:35.158Z,8
2016-09-22T03:05:15.852Z,8
2016-09-22T03:05:56.653Z,8
2016-09-22T03:06:37.370Z,8
2016-09-22T03:07:18.093Z,8
2016-09-22T03:07:58.822Z,8
2016-09-22T03:08:39.589Z,8
2016-09-22T03:09:20.344Z,8
2016-09-22T03:10:01.101Z,8
2016-09-22T03:10:41.817Z,8
2016-09-22T03:11:22.519Z,8
2016-09-22T03:12:03.244Z,8
2016-09-22T03:12:44.026Z,8
2016-09-22T03:13:24.720Z,8
2016-09-22T03:14:05.438Z,8
2016-09-22T03:14:46.142Z,8
2016-09-22T03:15:26.910Z,8
2016-09-22T03:16:07.714Z,8
2016-09-22T03:16:48.473Z,8
2016-09-22T03:17:29.227Z,8
2016-09-22T03:18:09.960Z,8
2016-09-22T03:18:50.751Z,8
2016-09-22T03:19:31.525Z,8
2016-09-22T03:20:12.253Z,8
2016-09-22T03:20:53.026Z,8
2016-09-22T03:21:33.791Z,8
2016-09-22T03:22:14.487Z,8
2016-09-22T03:22:55.191Z,8
2016-09-22T03:23:35.924Z,8
2016-09-22T03:24:16.665Z,8
2016-09-22T03:24:57.398Z,8
2016-09-22T03:25:38.132Z,8
2016-09-22T03:26:18.852Z,8
2016-09-22T03:26:59.605Z,8
2016-09-22T03:27:40.365Z,8
2016-09-22T03:28:21.091Z,8
2016-09-22T03:29:01.851Z,8
2016-09-22T03:29:42.579Z,8
2016-09-22T03:30:23.817Z,8
2016-09-22T03:31:04.070Z,8
2016-09-22T03:31:44.774Z,8
2016-09-22T03:32:25.504Z,8
2016-09-22T03:33:06.250Z,8
2016-09-22T03:33:46.998Z,8
2016-09-22T03:34:27.721Z,8
2016-09-22T03:35:08.489Z,8
2016-09-22T03:35:49.287Z,8
2016-09-22T03:36:30.036Z,8
2016-09-22T03:37:10.798Z,8
2016-09-22T03:37:51.544Z,8
2016-09-22T03:38:32.331Z,8
2016-09-22T03:39:13.028Z,8
2016-09-22T03:39:53.812Z,8
2016-09-22T03:40:34.524Z,8
2016-09-22T03:41:15.308Z,8
2016-09-22T03:41:56.035Z,8
2016-09-22T03:42:36.777Z,8
2016-09-22T03:43:17.532Z,8
2016-09-22T03:43:58.309Z,8
2016-09-22T03:44:39.035Z,8
2016-09-22T03:45:19.771Z,8
2016-09-22T03:46:00.491Z,8
2016-09-22T03:46:41.147Z,8
2016-09-22T03:47:21.911Z,8
2016-09-22T03:48:02.676Z,8
2016-09-22T03:48:43.421Z,8
2016-09-22T03:49:24.179Z,8
2016-09-22T03:50:04.948Z,8
2016-09-22T03:50:45.643Z,8
2016-09-22T03:51:26.439Z,8
2016-09-22T03:52:07.172Z,8
2016-09-22T03:52:47.923Z,8
2016-09-22T03:53:28.684Z,8
2016-09-22T03:54:09.454Z,8
2016-09-22T03:54:50.158Z,8
2016-09-22T03:55:30.928Z,8
2016-09-22T03:56:11.817Z,8
2016-09-22T03:56:52.521Z,8
2016-09-22T03:57:33.289Z,8
2016-09-22T03:58:14.005Z,8
2016-09-22T03:58:54.724Z,8
2016-09-22T03:59:35.516Z,8
2016-09-22T04:00:16.403Z,8
2016-09-22T04:00:57.263Z,8
2016-09-22T04:01:38.004Z,8
2016-09-22T04:02:18.720Z,8
2016-09-22T04:02:59.475Z,8
2016-09-22T04:03:40.176Z,8
2016-09-22T04:04:20.946Z,8
2016-09-22T04:05:01.673Z,8
2016-09-22T04:05:42.404Z,8
2016-09-22T04:06:23.171Z,8
2016-09-22T04:07:03.914Z,8
2016-09-22T04:07:44.660Z,8
2016-09-22T04:08:25.372Z,8
2016-09-22T04:09:06.098Z,8
2016-09-22T04:09:46.809Z,8
2016-09-22T04:10:27.647Z,8
2016-09-22T04:11:08.637Z,8
2016-09-22T04:11:49.377Z,8
2016-09-22T04:12:30.114Z,8
2016-09-22T04:13:10.811Z,8
2016-09-22T04:13:51.515Z,8
2016-09-22T04:14:32.292Z,8
2016-09-22T04:15:13.036Z,8
2016-09-22T04:15:53.741Z,8
2016-09-22T04:16:34.496Z,8
2016-09-22T04:17:15.211Z,8
2016-09-22T04:17:55.914Z,8
2016-09-22T04:18:36.682Z,8
2016-09-22T04:19:17.420Z,8
2016-09-22T04:19:58.155Z,8
2016-09-22T04:20:38.899Z,8
2016-09-22T04:21:19.651Z,8
2016-09-22T04:22:00.409Z,8
2016-09-22T04:22:41.372Z,8
2016-09-22T04:23:22.110Z,8
2016-09-22T04:24:02.783Z,8
2016-09-22T04:24:43.488Z,8
2016-09-22T04:25:24.247Z,8
2016-09-22T04:26:05.045Z,8
2016-09-22T04:26:45.747Z,8
2016-09-22T04:27:26.528Z,8
2016-09-22T04:28:07.286Z,8
2016-09-22T04:28:48.034Z,8
2016-09-22T04:29:28.785Z,8
2016-09-22T04:30:09.555Z,8
2016-09-22T04:30:50.254Z,8
2016-09-22T04:31:30.929Z,8
2016-09-22T04:32:11.688Z,8
2016-09-22T04:32:52.410Z,8
2016-09-22T04:33:33.136Z,8
2016-09-22T04:34:13.843Z,8
2016-09-22T04:34:54.612Z,8
2016-09-22T04:35:35.528Z,8
2016-09-22T04:36:16.240Z,8
2016-09-22T04:36:56.963Z,8
2016-09-22T04:37:37.724Z,8
2016-09-22T04:38:18.468Z,8
2016-09-22T04:38:59.241Z,8
2016-09-22T04:39:39.996Z,8
2016-09-22T04:40:20.687Z,8
2016-09-22T04:41:01.438Z,8
2016-09-22T04:41:42.228Z,8
2016-09-22T04:42:22.980Z,8
2016-09-22T04:43:03.693Z,8
2016-09-22T04:43:44.378Z,8
2016-09-22T04:44:25.094Z,8
2016-09-22T04:45:05.789Z,8
2016-09-22T04:45:46.638Z,8
2016-09-22T04:46:27.521Z,8
2016-09-22T04:47:08.204Z,8
2016-09-22T04:47:48.958Z,8
2016-09-22T04:48:29.723Z,8
2016-09-22T04:49:10.439Z,8
2016-09-22T04:49:51.305Z,8
2016-09-22T04:50:32.106Z,8
2016-09-22T04:51:12.941Z,8
2016-09-22T04:51:53.688Z,8
2016-09-22T04:52:34.444Z,8
2016-09-22T04:53:15.178Z,8
2016-09-22T04:53:55.840Z,8
2016-09-22T04:54:36.818Z,8
2016-09-22T04:55:17.516Z,8
2016-09-22T04:55:58.233Z,8
2016-09-22T04:56:38.937Z,8
2016-09-22T04:57:19.686Z,8
2016-09-22T04:58:00.464Z,36
2016-09-22T04:58:41.203Z,44
2016-09-22T04:59:21.940Z,48
2016-09-22T05:00:02.686Z,52
2016-09-22T05:00:43.399Z,52
2016-09-22T05:01:24.158Z,52
2016-09-22T05:02:04.862Z,52
2016-09-22T05:02:45.616Z,52
2016-09-22T05:03:26.316Z,52
2016-09-22T05:04:07.090Z,52
2016-09-22T05:04:47.778Z,52
2016-09-22T05:05:28.544Z,52
2016-09-22T05:06:09.313Z,52
2016-09-22T05:06:50.033Z,52
2016-09-22T05:07:30.792Z,52
2016-09-22T05:08:11.553Z,52
2016-09-22T05:08:52.330Z,52
2016-09-22T05:09:33.068Z,52
2016-09-22T05:10:13.768Z,52
2016-09-22T05:10:54.439Z,52
2016-09-22T05:11:35.140Z,52
2016-09-22T05:12:15.885Z,52
2016-09-22T05:12:56.597Z,52
2016-09-22T05:13:37.331Z,52
2016-09-22T05:14:18.022Z,52
2016-09-22T05:14:58.738Z,52
2016-09-22T05:15:39.516Z,52
2016-09-22T05:16:20.262Z,52
2016-09-22T05:17:01.020Z,52
2016-09-22T05:17:41.787Z,52
2016-09-22T05:18:22.518Z,52
2016-09-22T05:19:03.220Z,52
2016-09-22T05:19:43.943Z,52
2016-09-22T05:20:24.687Z,52
2016-09-22T05:21:05.437Z,52
2016-09-22T05:21:46.103Z,52
2016-09-22T05:22:26.826Z,52
2016-09-22T05:23:07.605Z,52
2016-09-22T05:23:48.320Z,52
2016-09-22T05:24:29.085Z,52
2016-09-22T05:25:09.854Z,52
2016-09-22T05:25:50.602Z,52
2016-09-22T05:26:31.277Z,52
2016-09-22T05:27:12.010Z,52
2016-09-22T05:27:52.711Z,52
2016-09-22T05:28:33.366Z,52
2016-09-22T05:29:14.164Z,52
2016-09-22T05:29:54.848Z,56
2016-09-22T05:30:35.610Z,52
2016-09-22T05:31:16.350Z,52
2016-09-22T05:31:57.075Z,52
2016-09-22T05:32:37.773Z,52
2016-09-22T05:33:18.517Z,52
2016-09-22T05:33:59.284Z,52
2016-09-22T05:34:40.037Z,52
2016-09-22T05:35:20.778Z,52
2016-09-22T05:36:01.560Z,52
2016-09-22T05:36:42.354Z,52
2016-09-22T05:37:23.071Z,56
2016-09-22T05:38:03.815Z,56
2016-09-22T05:38:44.533Z,56
2016-09-22T05:39:25.314Z,56
2016-09-22T05:40:06.063Z,52
2016-09-22T05:40:46.875Z,52
2016-09-22T05:41:27.605Z,52
2016-09-22T05:42:08.323Z,52
2016-09-22T05:42:49.052Z,56
2016-09-22T05:43:29.797Z,12
2016-09-22T05:44:10.571Z,8
2016-09-22T05:44:51.290Z,12
2016-09-22T05:45:32.034Z,12
2016-09-22T05:46:12.847Z,12
2016-09-22T05:46:53.623Z,12
2016-09-22T05:47:34.331Z,12
2016-09-22T05:48:15.056Z,16
2016-09-22T05:48:55.750Z,12
2016-09-22T05:49:36.516Z,12
2016-09-22T05:50:17.247Z,12
2016-09-22T05:50:57.984Z,16
2016-09-22T05:51:38.663Z,16
2016-09-22T05:52:19.398Z,12
2016-09-22T05:53:00.169Z,12
2016-09-22T05:53:40.899Z,16
2016-09-22T05:54:21.618Z,16
2016-09-22T05:55:02.349Z,16
2016-09-22T05:55:43.066Z,20
2016-09-22T05:56:23.813Z,16
2016-09-22T05:57:04.545Z,20
2016-09-22T05:57:45.300Z,20
2016-09-22T05:58:26.104Z,20
2016-09-22T05:59:06.914Z,20
2016-09-22T05:59:47.711Z,20
2016-09-22T06:00:28.477Z,20
2016-09-22T06:01:09.258Z,20
2016-09-22T06:01:50.001Z,20
2016-09-22T06:02:30.696Z,20
2016-09-22T06:03:11.512Z,20
2016-09-22T06:03:52.253Z,24
2016-09-22T06:04:32.934Z,24
2016-09-22T06:05:13.687Z,24
2016-09-22T06:05:54.477Z,24
2016-09-22T06:06:35.200Z,24
2016-09-22T06:07:15.963Z,28
2016-09-22T06:07:56.692Z,28
2016-09-22T06:08:37.418Z,28
2016-09-22T06:09:18.219Z,28
2016-09-22T06:09:58.985Z,32
2016-09-22T06:10:39.731Z,32
2016-09-22T06:11:20.527Z,32
2016-09-22T06:12:01.294Z,36
2016-09-22T06:12:41.970Z,32
2016-09-22T06:13:22.772Z,36
2016-09-22T06:14:03.488Z,40
2016-09-22T06:14:44.238Z,36
2016-09-22T06:15:24.959Z,40
2016-09-22T06:16:05.686Z,40
2016-09-22T06:16:46.426Z,40
2016-09-22T06:17:27.173Z,36
2016-09-22T06:18:07.872Z,40
2016-09-22T06:18:48.653Z,40
2016-09-22T06:19:29.390Z,40
2016-09-22T06:20:10.163Z,40
2016-09-22T06:20:50.916Z,40
2016-09-22T06:21:31.675Z,36
2016-09-22T06:22:12.441Z,40
2016-09-22T06:22:53.198Z,40
2016-09-22T06:23:33.941Z,40
2016-09-22T06:24:14.684Z,40
2016-09-22T06:24:55.432Z,36
2016-09-22T06:25:36.240Z,40
2016-09-22T06:26:16.997Z,36
2016-09-22T06:26:57.733Z,36
2016-09-22T06:27:38.494Z,36
2016-09-22T06:28:19.268Z,40
2016-09-22T06:29:00.051Z,40
2016-09-22T06:29:40.789Z,44
2016-09-22T06:30:21.606Z,44
2016-09-22T06:31:02.359Z,44
2016-09-22T06:31:43.089Z,44
2016-09-22T06:32:23.877Z,48
2016-09-22T06:33:04.647Z,56
2016-09-22T06:33:45.400Z,56
2016-09-22T06:34:26.173Z,64
2016-09-22T06:35:06.899Z,68
2016-09-22T06:35:47.722Z,76
2016-09-22T06:36:28.485Z,76
2016-09-22T06:37:10.161Z,80
2016-09-22T06:37:50.951Z,84
2016-09-22T06:38:31.687Z,88
2016-09-22T06:39:12.478Z,96
2016-09-22T06:39:53.235Z,116
2016-09-22T06:40:33.952Z,128
2016-09-22T06:41:14.701Z,116
2016-09-22T06:41:55.621Z,104
2016-09-22T06:42:36.628Z,104
2016-09-22T06:43:17.441Z,108
2016-09-22T06:43:58.178Z,120
2016-09-22T06:44:38.881Z,120
2016-09-22T06:45:19.591Z,124
2016-09-22T06:46:00.381Z,128
2016-09-22T06:46:41.105Z,124
2016-09-22T06:47:21.780Z,116
2016-09-22T06:48:02.672Z,112
2016-09-22T06:48:43.344Z,112
2016-09-22T06:49:24.127Z,124
2016-09-22T06:50:04.844Z,136
2016-09-22T06:50:45.544Z,132
2016-09-22T06:51:26.353Z,512
2016-09-22T06:52:07.021Z,612
2016-09-22T06:52:47.799Z,652
2016-09-22T06:53:28.594Z,668
2016-09-22T06:54:09.441Z,680
2016-09-22T06:54:50.517Z,684
2016-09-22T06:55:31.216Z,684
2016-09-22T06:56:12.010Z,680
2016-09-22T06:56:52.759Z,692
2016-09-22T06:57:33.486Z,696
2016-09-22T06:58:14.289Z,688
2016-09-22T06:58:55.026Z,700
2016-09-22T06:59:35.805Z,712
2016-09-22T07:00:16.599Z,708
2016-09-22T07:00:57.505Z,704
2016-09-22T07:01:38.459Z,704
2016-09-22T07:02:19.284Z,716
2016-09-22T07:03:00.034Z,732
2016-09-22T07:03:40.797Z,740
2016-09-22T07:04:21.532Z,748
2016-09-22T07:05:02.315Z,752
2016-09-22T07:05:43.104Z,756
2016-09-22T07:06:23.917Z,756
2016-09-22T07:07:04.639Z,760
2016-09-22T07:07:45.438Z,756
2016-09-22T07:08:26.240Z,760
2016-09-22T07:09:07.064Z,760
2016-09-22T07:09:48.034Z,752
2016-09-22T07:10:28.879Z,748
2016-09-22T07:11:09.683Z,752
2016-09-22T07:11:51.716Z,752
2016-09-22T07:12:32.115Z,764
2016-09-22T07:13:12.894Z,768
2016-09-22T07:13:53.799Z,768
2016-09-22T07:14:34.645Z,768
2016-09-22T07:15:15.545Z,768
2016-09-22T07:15:56.277Z,776
2016-09-22T07:16:37.204Z,776
2016-09-22T07:17:17.953Z,776
2016-09-22T07:17:58.694Z,776
2016-09-22T07:18:42.855Z,772
2016-09-22T07:19:23.659Z,772
2016-09-22T07:20:04.988Z,764
2016-09-22T07:20:46.120Z,764
2016-09-22T07:21:28.762Z,744
2016-09-22T07:22:09.970Z,760
2016-09-22T07:22:51.760Z,756
2016-09-22T07:23:33.941Z,748
2016-09-22T07:24:15.735Z,768
2016-09-22T07:24:56.677Z,772
2016-09-22T07:25:37.848Z,780
2016-09-22T07:26:18.726Z,784
2016-09-22T07:27:00.424Z,780
2016-09-22T07:27:52.888Z,780
2016-09-22T07:29:55.158Z,780
2016-09-22T07:30:36.448Z,776
2016-09-22T07:31:18.349Z,776
2016-09-22T07:31:59.809Z,772
2016-09-22T07:32:40.773Z,776
2016-09-22T07:33:22.633Z,772
2016-09-22T07:34:04.463Z,776
2016-09-22T07:34:45.848Z,772
2016-09-22T07:35:26.685Z,768
2016-09-22T07:36:08.659Z,772
2016-09-22T07:36:49.890Z,772
2016-09-22T07:39:26.169Z,760
2016-09-22T07:40:07.574Z,764
2016-09-22T07:40:48.525Z,760
2016-09-22T07:41:29.509Z,760
2016-09-22T07:42:10.348Z,764
2016-09-22T07:42:51.091Z,760
2016-09-22T07:43:31.849Z,760
2016-09-22T07:44:12.592Z,760
2016-09-22T07:44:53.350Z,760
2016-09-22T07:45:34.184Z,760
2016-09-22T07:46:14.975Z,760
2016-09-22T07:46:55.660Z,760
2016-09-22T07:47:36.373Z,756
2016-09-22T07:48:17.164Z,760
2016-09-22T07:48:57.853Z,760
2016-09-22T07:49:38.617Z,760
2016-09-22T07:50:19.335Z,760
2016-09-22T07:51:00.090Z,756
2016-09-22T07:51:40.915Z,760
2016-09-22T07:52:21.655Z,756
2016-09-22T07:53:02.462Z,756
2016-09-22T07:53:43.195Z,756
2016-09-22T07:54:23.951Z,756
2016-09-22T07:55:04.747Z,756
2016-09-22T07:55:45.520Z,756
2016-09-22T07:56:26.236Z,760
2016-09-22T07:57:07.027Z,764
2016-09-22T07:57:47.722Z,764
2016-09-22T07:58:28.468Z,764
2016-09-22T07:59:09.232Z,764
2016-09-22T07:59:49.953Z,764
2016-09-22T08:00:30.688Z,764
2016-09-22T08:01:11.501Z,764
2016-09-22T08:01:52.285Z,760
2016-09-22T08:02:33.017Z,760
2016-09-22T08:03:13.756Z,756
2016-09-22T08:03:54.569Z,752
2016-09-22T08:04:35.905Z,756
2016-09-22T08:05:16.091Z,752
2016-09-22T08:05:56.851Z,752
2016-09-22T08:06:37.645Z,756
2016-09-22T08:07:18.378Z,752
2016-09-22T08:07:59.192Z,752
2016-09-22T08:08:39.990Z,748
2016-09-22T08:09:21.402Z,752
2016-09-22T08:10:01.350Z,748
2016-09-22T08:10:42.129Z,748
2016-09-22T08:11:22.854Z,748
2016-09-22T08:12:03.683Z,748
2016-09-22T08:12:44.453Z,748
2016-09-22T08:13:25.159Z,748
2016-09-22T08:14:05.946Z,636
2016-09-22T08:18:02.495Z,564
2016-09-22T08:18:43.309Z,552
2016-09-22T08:19:24.159Z,568
2016-09-22T08:20:04.848Z,564
2016-09-22T08:20:45.768Z,568
2016-09-22T08:21:27.430Z,576
2016-09-22T08:22:09.172Z,576
2016-09-22T08:22:49.973Z,576
2016-09-22T08:23:30.806Z,568
2016-09-22T08:24:11.585Z,576
2016-09-22T08:24:52.289Z,576
2016-09-22T08:25:33.069Z,572
2016-09-22T08:26:13.873Z,572
2016-09-22T08:26:54.634Z,560
2016-09-22T08:27:35.352Z,544
2016-09-22T08:28:16.099Z,544
2016-09-22T08:28:56.927Z,548
2016-09-22T08:29:37.649Z,536
2016-09-22T08:30:18.417Z,564
2016-09-22T08:30:59.202Z,572
2016-09-22T08:31:40.410Z,568
2016-09-22T08:32:20.661Z,568
2016-09-22T08:33:01.926Z,544
2016-09-22T08:33:42.642Z,544
2016-09-22T08:34:23.328Z,548
2016-09-22T08:35:04.108Z,552
2016-09-22T08:35:44.880Z,552
2016-09-22T08:36:25.640Z,552
2016-09-22T08:37:06.348Z,552
2016-09-22T08:37:47.163Z,552
2016-09-22T08:38:27.908Z,556
2016-09-22T08:39:08.693Z,552
2016-09-22T08:39:49.421Z,556
2016-09-22T08:40:31.185Z,552
2016-09-22T08:41:12.079Z,564
2016-09-22T08:41:52.803Z,584
2016-09-22T08:42:33.504Z,576
2016-09-22T08:43:15.276Z,572
2016-09-22T08:43:56.091Z,580
2016-09-22T08:44:36.766Z,584
2016-09-22T08:45:17.554Z,584
2016-09-22T08:45:59.202Z,580
2016-09-22T08:46:39.959Z,580
2016-09-22T08:47:20.673Z,580
2016-09-22T08:48:01.477Z,580
2016-09-22T08:48:42.242Z,584
2016-09-22T08:49:24.428Z,584
2016-09-22T08:50:03.819Z,588
2016-09-22T08:50:44.569Z,584
2016-09-22T08:51:25.497Z,588
2016-09-22T08:52:06.976Z,588
2016-09-22T08:53:06.459Z,588
2016-09-22T08:53:50.995Z,584
2016-09-22T08:54:31.123Z,596
2016-09-22T08:55:11.832Z,592
2016-09-22T08:55:52.538Z,596
2016-09-22T08:56:34.422Z,596
2016-09-22T08:57:17.915Z,596
2016-09-22T08:58:01.423Z,592
2016-09-22T08:58:42.077Z,596
2016-09-22T08:59:22.815Z,592
2016-09-22T09:00:03.643Z,596
2016-09-22T09:00:44.324Z,596
2016-09-22T09:01:25.053Z,592
2016-09-22T09:02:05.860Z,596
2016-09-22T09:02:46.580Z,584
2016-09-22T09:03:27.365Z,576
2016-09-22T09:04:08.123Z,576
2016-09-22T09:04:48.852Z,572
2016-09-22T09:05:29.585Z,572
2016-09-22T09:06:10.384Z,572
2016-09-22T09:06:51.129Z,568
2016-09-22T09:07:31.909Z,568
2016-09-22T09:08:12.660Z,568
2016-09-22T09:08:54.428Z,568
2016-09-22T09:09:34.240Z,572
2016-09-22T09:10:14.950Z,572
2016-09-22T09:10:55.786Z,572
2016-09-22T09:11:36.524Z,572
2016-09-22T09:12:17.199Z,572
2016-09-22T09:12:58.018Z,576
2016-09-22T09:13:38.835Z,572
2016-09-22T09:14:19.560Z,576
2016-09-22T09:15:00.308Z,572
2016-09-22T09:15:41.060Z,584
2016-09-22T09:16:21.956Z,580
2016-09-22T09:17:02.698Z,580
2016-09-22T09:17:43.987Z,572
2016-09-22T09:18:24.739Z,560
2016-09-22T09:19:05.655Z,560
2016-09-22T09:19:46.550Z,564
2016-09-22T09:20:27.528Z,556
2016-09-22T09:21:08.488Z,552
2016-09-22T09:21:50.082Z,560
2016-09-22T09:22:30.828Z,576
2016-09-22T09:23:11.631Z,576
2016-09-22T09:23:52.416Z,580
2016-09-22T09:24:33.133Z,576
2016-09-22T09:25:13.927Z,572
2016-09-22T09:25:54.688Z,576
2016-09-22T09:26:35.506Z,560
2016-09-22T09:27:16.228Z,552
2016-09-22T09:27:56.946Z,564
2016-09-22T09:28:37.635Z,548
2016-09-22T09:29:18.382Z,528
2016-09-22T09:29:59.120Z,504
2016-09-22T09:30:39.862Z,520
2016-09-22T09:31:20.654Z,520
2016-09-22T09:32:01.395Z,532
2016-09-22T09:32:42.155Z,524
2016-09-22T09:33:23.015Z,532
2016-09-22T09:34:03.674Z,536
2016-09-22T09:34:44.464Z,532
2016-09-22T09:35:25.190Z,532
2016-09-22T09:36:06.382Z,528
2016-09-22T09:36:47.558Z,532
2016-09-22T09:37:28.845Z,532
2016-09-22T09:38:10.426Z,528
2016-09-22T09:38:52.453Z,524
2016-09-22T09:39:33.036Z,524
2016-09-22T09:40:14.958Z,528
2016-09-22T09:40:57.205Z,528
2016-09-22T09:41:38.228Z,524
2016-09-22T09:42:19.403Z,528
2016-09-22T09:43:00.338Z,532
2016-09-22T09:43:41.279Z,540
2016-09-22T09:44:22.565Z,536
2016-09-22T09:45:03.349Z,532
2016-09-22T09:45:44.176Z,532
2016-09-22T09:46:24.914Z,536
2016-09-22T09:47:05.683Z,536
2016-09-22T09:47:46.475Z,536
2016-09-22T09:48:27.297Z,536
2016-09-22T09:49:08.090Z,536
2016-09-22T09:49:48.902Z,536
2016-09-22T09:50:29.726Z,540
2016-09-22T09:51:13.475Z,544
2016-09-22T09:51:54.290Z,536
2016-09-22T09:52:35.098Z,536
2016-09-22T09:53:15.908Z,536